Cruz Bay, VI

12:45 AM AST on September 21, 2014 (GMT -0400)
Henry E Rohlsen | Change Station
CLOSE
Current Station
Airport
Location: St. Croix,
Elevation: 56 ft
Nearby Weather Stations

Elev 56 ft 17.70 °N, 64.81 °W | Updated 1 hour ago

Scattered Clouds
Scattered Clouds
82 °F
Feels Like 89 °F
N
10
Wind Variable Wind from ENE

Today
High -- | Low -- °F
--% Chance of Precip.
Yesterday
High -- | Low -- °F
Precip. -- in
6:07 AM 6:16 PM
Waning Crescent, 8% visible
Pressure 30.01 in
Visibility 10.0 miles
Clouds Scattered Clouds 2300 ft
Scattered Clouds 3000 ft
Heat Index 89 °F
Dew Point 75 °F
Humidity 79%
Rainfall 0.00 in
Snow Depth Not available.
UV 0 out of 12
Pollen Not available.
Air Quality Not available.
Flu Activity Not available.
METAR TISX 210253Z 07009KT 10SM SCT023 SCT030 28/24 A3002 RMK AO2 SLP163 T02780239 50013

More Conditions Fewer Conditions

Pressure 30.01 in
Visibility 10.0 miles
Clouds Scattered Clouds 2300 ft
Scattered Clouds 3000 ft
Heat Index 89 °F
Dew Point 75 °F
Humidity 79%
Rainfall 0.00 in
Snow Depth Not available.
UV 0 out of 12
Pollen Not available.
Air Quality Not available.
Flu Activity Not available.
METAR TISX 210253Z 07009KT 10SM SCT023 SCT030 28/24 A3002 RMK AO2 SLP163 T02780239 50013

More Conditions Fewer Conditions

10-Day Weather Forecast

Almanac

Astronomy

Sep. 21, 2014 Rise Set
Actual Time 6:07 AM AST 6:16 PM AST
Civil Twilight 5:46 AM AST 6:38 PM AST
Nautical Twilight 5:20 AM AST 7:03 PM AST
Astronomical Twilight 4:55 AM AST 7:28 PM AST
Moon 3:54 AM AST 4:37 PM AST
Length of Visible Light 12h 51m
Length of Day
12h 08m
Tomorrow will be 1m 2s shorter.
Waning Crescent, 8% of the Moon is Illuminated
Today
Waning Crescent
Sep 24
New
Oct 1
First Quarter
Oct 8
Full
Oct 15
Last Quarter

Community

WunderPhotos

Upload Photos

1,755,086 photos uploaded!

Nearby

Snow Depth

Station Depth Elevation
No new snow has been reported.

Earthquake Activity

City Distance Mag. Time & Date
No recent earthquake activity has been reported nearby.
Minimum magnitude displayed is 2.5.

Coastal Water Temperatures

Place Temperature
Yabucoa Harbor, PR 82.9 °F
Esperanza, PR 86.0 °F
Charlotte Amalie, VI 86.0 °F

Nearby Weather Stations